sensor_id;sensor_type;location;lat;lon;timestamp;P1;durP1;ratioP1;P2;durP2;ratioP2
19946;SDS011;10135;50.702;7.276;2022-11-20T06:31:58;22.60;;;12.17;;
19946;SDS011;10135;50.702;7.276;2022-11-20T06:34:01;20.10;;;11.80;;
19946;SDS011;10135;50.702;7.276;2022-11-20T06:36:02;20.83;;;11.70;;
19946;SDS011;10135;50.702;7.276;2022-11-20T06:38:04;19.37;;;11.47;;
19946;SDS011;10135;50.702;7.276;2022-11-20T06:40:05;24.83;;;12.97;;
19946;SDS011;10135;50.702;7.276;2022-11-20T06:42:07;20.97;;;11.57;;
19946;SDS011;10135;50.702;7.276;2022-11-20T06:44:08;20.70;;;12.03;;
19946;SDS011;10135;50.702;7.276;2022-11-20T06:46:09;21.20;;;11.77;;
19946;SDS011;10135;50.702;7.276;2022-11-20T06:48:12;19.67;;;11.30;;
19946;SDS011;10135;50.702;7.276;2022-11-20T06:50:13;22.03;;;12.07;;
19946;SDS011;10135;50.702;7.276;2022-11-20T06:52:13;22.37;;;12.30;;
19946;SDS011;10135;50.702;7.276;2022-11-20T06:54:14;21.60;;;12.03;;
19946;SDS011;10135;50.702;7.276;2022-11-20T06:56:14;21.13;;;11.67;;
19946;SDS011;10135;50.702;7.276;2022-11-20T06:58:16;25.17;;;12.57;;
19946;SDS011;10135;50.702;7.276;2022-11-20T07:00:17;20.77;;;11.73;;
19946;SDS011;10135;50.702;7.276;2022-11-20T07:02:18;21.73;;;12.00;;
19946;SDS011;10135;50.702;7.276;2022-11-20T07:04:18;22.53;;;12.43;;
19946;SDS011;10135;50.702;7.276;2022-11-20T07:06:19;23.30;;;12.50;;
19946;SDS011;10135;50.702;7.276;2022-11-20T07:08:19;21.10;;;11.83;;
19946;SDS011;10135;50.702;7.276;2022-11-20T07:10:20;22.13;;;12.30;;
19946;SDS011;10135;50.702;7.276;2022-11-20T07:12:21;20.30;;;11.97;;
19946;SDS011;10135;50.702;7.276;2022-11-20T07:14:21;20.37;;;11.57;;
19946;SDS011;10135;50.702;7.276;2022-11-20T07:16:22;20.63;;;11.57;;
19946;SDS011;10135;50.702;7.276;2022-11-20T07:18:23;18.93;;;11.07;;
19946;SDS011;10135;50.702;7.276;2022-11-20T07:20:23;19.90;;;11.27;;
19946;SDS011;10135;50.702;7.276;2022-11-20T07:22:24;21.60;;;11.60;;
19946;SDS011;10135;50.702;7.276;2022-11-20T07:24:24;20.27;;;11.07;;
19946;SDS011;10135;50.702;7.276;2022-11-20T07:26:25;20.90;;;12.10;;
19946;SDS011;10135;50.702;7.276;2022-11-20T07:28:26;22.23;;;10.80;;
19946;SDS011;10135;50.702;7.276;2022-11-20T07:30:27;20.17;;;11.30;;
19946;SDS011;10135;50.702;7.276;2022-11-20T07:32:28;19.80;;;11.60;;
19946;SDS011;10135;50.702;7.276;2022-11-20T07:34:29;18.60;;;10.93;;
19946;SDS011;10135;50.702;7.276;2022-11-20T07:36:29;21.17;;;11.47;;
19946;SDS011;10135;50.702;7.276;2022-11-20T07:38:30;20.10;;;11.37;;
19946;SDS011;10135;50.702;7.276;2022-11-20T07:40:31;19.87;;;11.40;;
19946;SDS011;10135;50.702;7.276;2022-11-20T07:42:31;20.63;;;11.77;;
19946;SDS011;10135;50.702;7.276;2022-11-20T07:44:32;21.30;;;12.17;;
19946;SDS011;10135;50.702;7.276;2022-11-20T07:46:33;19.87;;;12.00;;
19946;SDS011;10135;50.702;7.276;2022-11-20T07:48:34;23.00;;;11.90;;
19946;SDS011;10135;50.702;7.276;2022-11-20T07:50:34;19.77;;;11.50;;
19946;SDS011;10135;50.702;7.276;2022-11-20T07:52:35;20.83;;;11.87;;
19946;SDS011;10135;50.702;7.276;2022-11-20T07:54:35;22.40;;;12.00;;
19946;SDS011;10135;50.702;7.276;2022-11-20T07:56:36;22.87;;;12.50;;
19946;SDS011;10135;50.702;7.276;2022-11-20T07:58:37;24.63;;;12.13;;
19946;SDS011;10135;50.702;7.276;2022-11-20T08:00:37;23.73;;;12.60;;
19946;SDS011;10135;50.702;7.276;2022-11-20T08:02:38;28.40;;;13.47;;
19946;SDS011;10135;50.702;7.276;2022-11-20T08:04:40;25.00;;;12.73;;
19946;SDS011;10135;50.702;7.276;2022-11-20T08:06:41;22.53;;;11.50;;
19946;SDS011;10135;50.702;7.276;2022-11-20T08:08:42;24.10;;;12.57;;
19946;SDS011;10135;50.702;7.276;2022-11-20T08:10:43;24.00;;;12.67;;
19946;SDS011;10135;50.702;7.276;2022-11-20T08:12:46;24.93;;;12.90;;
19946;SDS011;10135;50.702;7.276;2022-11-20T08:15:09;27.87;;;13.47;;
19946;SDS011;10135;50.702;7.276;2022-11-20T08:17:09;25.23;;;13.00;;
19946;SDS011;10135;50.702;7.276;2022-11-20T08:19:10;24.33;;;12.60;;
19946;SDS011;10135;50.702;7.276;2022-11-20T08:21:13;25.93;;;13.10;;
19946;SDS011;10135;50.702;7.276;2022-11-20T08:23:13;26.37;;;13.67;;
19946;SDS011;10135;50.702;7.276;2022-11-20T08:25:14;29.07;;;14.47;;
19946;SDS011;10135;50.702;7.276;2022-11-20T08:27:15;26.53;;;13.97;;
19946;SDS011;10135;50.702;7.276;2022-11-20T08:29:15;28.73;;;14.07;;
19946;SDS011;10135;50.702;7.276;2022-11-20T08:31:16;29.70;;;14.67;;
19946;SDS011;10135;50.702;7.276;2022-11-20T08:33:17;28.83;;;14.10;;
19946;SDS011;10135;50.702;7.276;2022-11-20T08:35:18;28.53;;;14.10;;
19946;SDS011;10135;50.702;7.276;2022-11-20T08:37:19;26.20;;;13.73;;
19946;SDS011;10135;50.702;7.276;2022-11-20T08:39:20;28.73;;;14.20;;
19946;SDS011;10135;50.702;7.276;2022-11-20T08:41:21;27.80;;;13.80;;
19946;SDS011;10135;50.702;7.276;2022-11-20T08:43:28;32.03;;;14.50;;
19946;SDS011;10135;50.702;7.276;2022-11-20T08:45:28;27.03;;;14.27;;
19946;SDS011;10135;50.702;7.276;2022-11-20T08:47:29;28.23;;;13.70;;
19946;SDS011;10135;50.702;7.276;2022-11-20T08:49:30;28.57;;;14.07;;
19946;SDS011;10135;50.702;7.276;2022-11-20T08:51:30;27.70;;;14.23;;
19946;SDS011;10135;50.702;7.276;2022-11-20T08:53:31;28.63;;;14.03;;
19946;SDS011;10135;50.702;7.276;2022-11-20T08:55:32;26.53;;;13.67;;
19946;SDS011;10135;50.702;7.276;2022-11-20T08:57:35;28.20;;;14.57;;
19946;SDS011;10135;50.702;7.276;2022-11-20T08:59:37;28.83;;;14.10;;
19946;SDS011;10135;50.702;7.276;2022-11-20T09:01:37;26.77;;;13.27;;
19946;SDS011;10135;50.702;7.276;2022-11-20T09:03:38;24.90;;;13.07;;
19946;SDS011;10135;50.702;7.276;2022-11-20T09:05:39;24.37;;;12.60;;
19946;SDS011;10135;50.702;7.276;2022-11-20T09:07:40;25.93;;;12.87;;
19946;SDS011;10135;50.702;7.276;2022-11-20T09:09:42;24.53;;;12.87;;
19946;SDS011;10135;50.702;7.276;2022-11-20T09:11:42;24.60;;;14.03;;
19946;SDS011;10135;50.702;7.276;2022-11-20T09:13:43;24.37;;;13.57;;
19946;SDS011;10135;50.702;7.276;2022-11-20T09:15:43;23.67;;;13.17;;
19946;SDS011;10135;50.702;7.276;2022-11-20T09:17:53;24.87;;;13.40;;
19946;SDS011;10135;50.702;7.276;2022-11-20T09:19:58;27.27;;;15.40;;
19946;SDS011;10135;50.702;7.276;2022-11-20T09:21:58;27.00;;;14.23;;
19946;SDS011;10135;50.702;7.276;2022-11-20T09:23:59;24.77;;;13.17;;
19946;SDS011;10135;50.702;7.276;2022-11-20T09:26:08;27.20;;;13.90;;
19946;SDS011;10135;50.702;7.276;2022-11-20T09:28:11;25.50;;;13.50;;
19946;SDS011;10135;50.702;7.276;2022-11-20T09:30:12;26.63;;;13.97;;
19946;SDS011;10135;50.702;7.276;2022-11-20T09:32:16;28.37;;;14.60;;
19946;SDS011;10135;50.702;7.276;2022-11-20T09:34:17;25.93;;;13.73;;
19946;SDS011;10135;50.702;7.276;2022-11-20T09:36:17;26.90;;;13.70;;
19946;SDS011;10135;50.702;7.276;2022-11-20T09:38:18;26.43;;;13.83;;
19946;SDS011;10135;50.702;7.276;2022-11-20T09:40:20;25.47;;;13.40;;
19946;SDS011;10135;50.702;7.276;2022-11-20T09:42:30;27.23;;;14.00;;
19946;SDS011;10135;50.702;7.276;2022-11-20T09:47:24;23.60;;;13.30;;
19946;SDS011;10135;50.702;7.276;2022-11-20T09:49:57;26.57;;;14.00;;
19946;SDS011;10135;50.702;7.276;2022-11-20T09:52:37;25.37;;;14.03;;
19946;SDS011;10135;50.702;7.276;2022-11-20T09:54:51;29.27;;;13.93;;
19946;SDS011;10135;50.702;7.276;2022-11-20T09:57:05;23.57;;;13.50;;
19946;SDS011;10135;50.702;7.276;2022-11-20T10:01:39;26.70;;;13.47;;
19946;SDS011;10135;50.702;7.276;2022-11-20T10:03:50;26.63;;;13.20;;
19946;SDS011;10135;50.702;7.276;2022-11-20T10:06:07;26.27;;;13.47;;
19946;SDS011;10135;50.702;7.276;2022-11-20T10:08:25;31.73;;;14.50;;
19946;SDS011;10135;50.702;7.276;2022-11-20T10:10:49;24.60;;;13.23;;
19946;SDS011;10135;50.702;7.276;2022-11-20T10:13:11;26.63;;;13.67;;
19946;SDS011;10135;50.702;7.276;2022-11-20T10:15:53;20.43;;;11.67;;
19946;SDS011;10135;50.702;7.276;2022-11-20T10:20:24;22.93;;;12.77;;
19946;SDS011;10135;50.702;7.276;2022-11-20T10:25:46;21.40;;;12.33;;
19946;SDS011;10135;50.702;7.276;2022-11-20T10:28:24;22.70;;;12.23;;
19946;SDS011;10135;50.702;7.276;2022-11-20T10:30:42;20.30;;;11.73;;
19946;SDS011;10135;50.702;7.276;2022-11-20T10:32:48;20.13;;;11.00;;
19946;SDS011;10135;50.702;7.276;2022-11-20T10:37:13;22.97;;;11.47;;
19946;SDS011;10135;50.702;7.276;2022-11-20T10:41:55;20.77;;;11.57;;
19946;SDS011;10135;50.702;7.276;2022-11-20T10:44:04;21.33;;;11.53;;
19946;SDS011;10135;50.702;7.276;2022-11-20T10:46:44;18.47;;;11.07;;
19946;SDS011;10135;50.702;7.276;2022-11-20T10:48:45;21.87;;;11.47;;
19946;SDS011;10135;50.702;7.276;2022-11-20T10:51:08;20.23;;;11.83;;
19946;SDS011;10135;50.702;7.276;2022-11-20T10:56:04;19.63;;;10.90;;
19946;SDS011;10135;50.702;7.276;2022-11-20T10:58:19;20.17;;;10.43;;
19946;SDS011;10135;50.702;7.276;2022-11-20T11:00:38;19.03;;;10.47;;
19946;SDS011;10135;50.702;7.276;2022-11-20T11:02:42;17.97;;;10.60;;
19946;SDS011;10135;50.702;7.276;2022-11-20T11:04:51;18.47;;;10.73;;
19946;SDS011;10135;50.702;7.276;2022-11-20T11:06:54;17.93;;;10.17;;
19946;SDS011;10135;50.702;7.276;2022-11-20T11:09:11;20.67;;;10.77;;
19946;SDS011;10135;50.702;7.276;2022-11-20T11:11:23;18.20;;;10.80;;
19946;SDS011;10135;50.702;7.276;2022-11-20T11:13:30;16.03;;;10.17;;
19946;SDS011;10135;50.702;7.276;2022-11-20T11:15:39;19.43;;;9.97;;
19946;SDS011;10135;50.702;7.276;2022-11-20T11:17:46;17.17;;;10.37;;
19946;SDS011;10135;50.702;7.276;2022-11-20T11:22:16;18.40;;;10.00;;
19946;SDS011;10135;50.702;7.276;2022-11-20T11:24:22;21.63;;;10.90;;
19946;SDS011;10135;50.702;7.276;2022-11-20T11:26:29;18.93;;;10.50;;
19946;SDS011;10135;50.702;7.276;2022-11-20T11:28:30;20.87;;;10.63;;
19946;SDS011;10135;50.702;7.276;2022-11-20T11:30:41;18.73;;;10.93;;
19946;SDS011;10135;50.702;7.276;2022-11-20T11:32:44;21.43;;;10.83;;
19946;SDS011;10135;50.702;7.276;2022-11-20T11:34:45;16.70;;;9.50;;
19946;SDS011;10135;50.702;7.276;2022-11-20T11:37:19;19.10;;;10.87;;
19946;SDS011;10135;50.702;7.276;2022-11-20T11:39:21;17.90;;;10.27;;
19946;SDS011;10135;50.702;7.276;2022-11-20T11:41:25;17.07;;;10.03;;
19946;SDS011;10135;50.702;7.276;2022-11-20T11:43:33;16.13;;;9.83;;
19946;SDS011;10135;50.702;7.276;2022-11-20T11:45:55;18.10;;;10.37;;
19946;SDS011;10135;50.702;7.276;2022-11-20T11:48:00;16.93;;;9.97;;
19946;SDS011;10135;50.702;7.276;2022-11-20T11:52:14;16.60;;;9.67;;
19946;SDS011;10135;50.702;7.276;2022-11-20T11:54:20;15.90;;;9.33;;
19946;SDS011;10135;50.702;7.276;2022-11-20T11:56:32;14.17;;;8.70;;
19946;SDS011;10135;50.702;7.276;2022-11-20T11:58:51;14.63;;;9.07;;
19946;SDS011;10135;50.702;7.276;2022-11-20T12:01:20;14.83;;;9.03;;
19946;SDS011;10135;50.702;7.276;2022-11-20T12:03:35;14.00;;;8.60;;
19946;SDS011;10135;50.702;7.276;2022-11-20T12:05:44;16.10;;;9.77;;
19946;SDS011;10135;50.702;7.276;2022-11-20T12:10:39;15.17;;;9.30;;
19946;SDS011;10135;50.702;7.276;2022-11-20T12:13:00;15.37;;;8.77;;
19946;SDS011;10135;50.702;7.276;2022-11-20T12:15:19;18.17;;;9.97;;
19946;SDS011;10135;50.702;7.276;2022-11-20T12:17:30;15.17;;;8.63;;
19946;SDS011;10135;50.702;7.276;2022-11-20T12:19:31;13.40;;;8.43;;
19946;SDS011;10135;50.702;7.276;2022-11-20T12:26:45;12.87;;;8.00;;
19946;SDS011;10135;50.702;7.276;2022-11-20T12:36:27;14.60;;;8.67;;
19946;SDS011;10135;50.702;7.276;2022-11-20T12:49:38;15.10;;;8.70;;
19946;SDS011;10135;50.702;7.276;2022-11-20T12:52:23;16.93;;;8.83;;
19946;SDS011;10135;50.702;7.276;2022-11-20T12:59:51;19.33;;;9.50;;
19946;SDS011;10135;50.702;7.276;2022-11-20T13:05:12;17.33;;;9.77;;
19946;SDS011;10135;50.702;7.276;2022-11-20T13:07:24;15.70;;;8.57;;
19946;SDS011;10135;50.702;7.276;2022-11-20T13:09:26;15.73;;;8.77;;
19946;SDS011;10135;50.702;7.276;2022-11-20T13:11:32;14.87;;;9.10;;
19946;SDS011;10135;50.702;7.276;2022-11-20T13:19:24;14.90;;;8.73;;
19946;SDS011;10135;50.702;7.276;2022-11-20T13:21:37;14.67;;;9.07;;
19946;SDS011;10135;50.702;7.276;2022-11-20T13:23:41;13.83;;;8.30;;
19946;SDS011;10135;50.702;7.276;2022-11-20T13:25:41;14.13;;;9.07;;
19946;SDS011;10135;50.702;7.276;2022-11-20T13:27:48;15.03;;;9.10;;
19946;SDS011;10135;50.702;7.276;2022-11-20T13:32:17;17.77;;;9.33;;
19946;SDS011;10135;50.702;7.276;2022-11-20T13:34:24;15.57;;;9.17;;
19946;SDS011;10135;50.702;7.276;2022-11-20T13:36:28;14.37;;;8.83;;
19946;SDS011;10135;50.702;7.276;2022-11-20T13:38:43;16.60;;;9.13;;
19946;SDS011;10135;50.702;7.276;2022-11-20T13:40:51;14.60;;;8.60;;
19946;SDS011;10135;50.702;7.276;2022-11-20T13:45:37;17.97;;;9.30;;
19946;SDS011;10135;50.702;7.276;2022-11-20T13:47:38;15.83;;;9.53;;
19946;SDS011;10135;50.702;7.276;2022-11-20T13:49:49;15.70;;;9.73;;
19946;SDS011;10135;50.702;7.276;2022-11-20T13:51:59;16.43;;;8.73;;
19946;SDS011;10135;50.702;7.276;2022-11-20T13:54:41;18.33;;;10.07;;
19946;SDS011;10135;50.702;7.276;2022-11-20T13:57:14;15.93;;;8.83;;
19946;SDS011;10135;50.702;7.276;2022-11-20T13:59:47;13.90;;;8.87;;
19946;SDS011;10135;50.702;7.276;2022-11-20T14:02:01;15.00;;;8.50;;
19946;SDS011;10135;50.702;7.276;2022-11-20T14:04:06;16.73;;;9.13;;
19946;SDS011;10135;50.702;7.276;2022-11-20T14:06:14;15.00;;;8.37;;
19946;SDS011;10135;50.702;7.276;2022-11-20T14:08:35;15.10;;;8.87;;
19946;SDS011;10135;50.702;7.276;2022-11-20T14:10:41;13.53;;;8.30;;
19946;SDS011;10135;50.702;7.276;2022-11-20T14:12:41;14.20;;;8.27;;
19946;SDS011;10135;50.702;7.276;2022-11-20T14:14:52;15.60;;;9.10;;
19946;SDS011;10135;50.702;7.276;2022-11-20T14:17:07;15.43;;;8.57;;
19946;SDS011;10135;50.702;7.276;2022-11-20T14:19:23;15.00;;;8.27;;
19946;SDS011;10135;50.702;7.276;2022-11-20T14:21:30;14.40;;;8.60;;
19946;SDS011;10135;50.702;7.276;2022-11-20T14:23:31;13.37;;;8.10;;
19946;SDS011;10135;50.702;7.276;2022-11-20T14:25:31;15.10;;;8.50;;
19946;SDS011;10135;50.702;7.276;2022-11-20T14:27:33;13.90;;;8.30;;
19946;SDS011;10135;50.702;7.276;2022-11-20T14:29:37;14.60;;;8.17;;
19946;SDS011;10135;50.702;7.276;2022-11-20T14:31:40;14.00;;;8.67;;
19946;SDS011;10135;50.702;7.276;2022-11-20T14:33:44;12.23;;;8.07;;
19946;SDS011;10135;50.702;7.276;2022-11-20T14:35:45;13.13;;;7.90;;
19946;SDS011;10135;50.702;7.276;2022-11-20T14:37:55;13.30;;;8.30;;
19946;SDS011;10135;50.702;7.276;2022-11-20T14:39:57;14.77;;;8.60;;
19946;SDS011;10135;50.702;7.276;2022-11-20T14:41:58;13.97;;;7.83;;
19946;SDS011;10135;50.702;7.276;2022-11-20T14:43:59;15.60;;;7.80;;
19946;SDS011;10135;50.702;7.276;2022-11-20T14:46:02;11.77;;;7.57;;
19946;SDS011;10135;50.702;7.276;2022-11-20T14:48:08;12.67;;;7.50;;
19946;SDS011;10135;50.702;7.276;2022-11-20T14:50:27;10.57;;;7.23;;
19946;SDS011;10135;50.702;7.276;2022-11-20T14:52:29;12.00;;;7.90;;
19946;SDS011;10135;50.702;7.276;2022-11-20T14:54:30;14.03;;;8.10;;
19946;SDS011;10135;50.702;7.276;2022-11-20T14:56:33;13.70;;;8.17;;
19946;SDS011;10135;50.702;7.276;2022-11-20T14:58:34;12.13;;;7.00;;
19946;SDS011;10135;50.702;7.276;2022-11-20T15:00:34;12.90;;;6.83;;
19946;SDS011;10135;50.702;7.276;2022-11-20T15:02:41;13.27;;;7.93;;
19946;SDS011;10135;50.702;7.276;2022-11-20T15:04:44;17.83;;;9.37;;
19946;SDS011;10135;50.702;7.276;2022-11-20T15:06:52;17.80;;;9.23;;
19946;SDS011;10135;50.702;7.276;2022-11-20T15:08:58;13.57;;;7.63;;
19946;SDS011;10135;50.702;7.276;2022-11-20T15:10:59;13.83;;;8.03;;
19946;SDS011;10135;50.702;7.276;2022-11-20T15:13:02;11.30;;;6.80;;
19946;SDS011;10135;50.702;7.276;2022-11-20T15:15:11;8.53;;;6.20;;
19946;SDS011;10135;50.702;7.276;2022-11-20T15:17:18;9.60;;;5.97;;
19946;SDS011;10135;50.702;7.276;2022-11-20T15:19:23;10.63;;;5.60;;
19946;SDS011;10135;50.702;7.276;2022-11-20T15:21:26;8.20;;;4.63;;
19946;SDS011;10135;50.702;7.276;2022-11-20T15:23:27;9.03;;;4.63;;
19946;SDS011;10135;50.702;7.276;2022-11-20T15:25:28;5.33;;;3.87;;
19946;SDS011;10135;50.702;7.276;2022-11-20T15:27:30;6.33;;;4.17;;
19946;SDS011;10135;50.702;7.276;2022-11-20T15:29:30;5.37;;;4.20;;
19946;SDS011;10135;50.702;7.276;2022-11-20T15:31:32;4.60;;;3.90;;
19946;SDS011;10135;50.702;7.276;2022-11-20T15:33:32;5.07;;;4.00;;
19946;SDS011;10135;50.702;7.276;2022-11-20T15:35:33;4.17;;;3.60;;
19946;SDS011;10135;50.702;7.276;2022-11-20T15:37:34;4.23;;;3.70;;
19946;SDS011;10135;50.702;7.276;2022-11-20T15:39:35;4.87;;;3.87;;
19946;SDS011;10135;50.702;7.276;2022-11-20T15:41:36;6.43;;;4.37;;
19946;SDS011;10135;50.702;7.276;2022-11-20T15:43:37;6.17;;;4.20;;
19946;SDS011;10135;50.702;7.276;2022-11-20T15:45:42;5.13;;;3.97;;
19946;SDS011;10135;50.702;7.276;2022-11-20T15:48:12;5.77;;;4.30;;
19946;SDS011;10135;50.702;7.276;2022-11-20T15:50:17;5.40;;;4.13;;
19946;SDS011;10135;50.702;7.276;2022-11-20T15:52:18;5.83;;;4.07;;
19946;SDS011;10135;50.702;7.276;2022-11-20T15:54:20;4.97;;;4.00;;
19946;SDS011;10135;50.702;7.276;2022-11-20T15:56:22;6.40;;;4.87;;
19946;SDS011;10135;50.702;7.276;2022-11-20T15:58:24;5.87;;;4.50;;
19946;SDS011;10135;50.702;7.276;2022-11-20T16:00:25;4.40;;;3.80;;
19946;SDS011;10135;50.702;7.276;2022-11-20T16:02:25;4.67;;;3.50;;
19946;SDS011;10135;50.702;7.276;2022-11-20T16:04:26;3.70;;;3.40;;
19946;SDS011;10135;50.702;7.276;2022-11-20T16:06:26;4.80;;;3.33;;
19946;SDS011;10135;50.702;7.276;2022-11-20T16:08:27;6.13;;;3.60;;
19946;SDS011;10135;50.702;7.276;2022-11-20T16:10:28;4.13;;;3.43;;
19946;SDS011;10135;50.702;7.276;2022-11-20T16:12:28;4.90;;;4.23;;
19946;SDS011;10135;50.702;7.276;2022-11-20T16:14:47;4.53;;;3.80;;
19946;SDS011;10135;50.702;7.276;2022-11-20T16:17:06;3.57;;;3.00;;
19946;SDS011;10135;50.702;7.276;2022-11-20T16:19:10;4.27;;;3.57;;
19946;SDS011;10135;50.702;7.276;2022-11-20T16:21:12;3.67;;;3.27;;
19946;SDS011;10135;50.702;7.276;2022-11-20T16:23:13;3.73;;;3.07;;
19946;SDS011;10135;50.702;7.276;2022-11-20T16:25:15;3.83;;;2.97;;
19946;SDS011;10135;50.702;7.276;2022-11-20T16:27:16;3.93;;;3.07;;
19946;SDS011;10135;50.702;7.276;2022-11-20T16:29:16;3.43;;;3.00;;
19946;SDS011;10135;50.702;7.276;2022-11-20T16:31:17;5.73;;;2.97;;
19946;SDS011;10135;50.702;7.276;2022-11-20T16:33:19;3.10;;;2.90;;
19946;SDS011;10135;50.702;7.276;2022-11-20T16:35:20;2.93;;;2.73;;
19946;SDS011;10135;50.702;7.276;2022-11-20T16:37:21;3.53;;;3.00;;
19946;SDS011;10135;50.702;7.276;2022-11-20T16:39:21;2.90;;;2.70;;
19946;SDS011;10135;50.702;7.276;2022-11-20T16:41:22;3.00;;;2.80;;
19946;SDS011;10135;50.702;7.276;2022-11-20T16:43:25;2.80;;;2.60;;
19946;SDS011;10135;50.702;7.276;2022-11-20T16:45:26;2.90;;;2.60;;
19946;SDS011;10135;50.702;7.276;2022-11-20T16:47:26;3.60;;;2.83;;
19946;SDS011;10135;50.702;7.276;2022-11-20T16:49:27;5.00;;;2.70;;
19946;SDS011;10135;50.702;7.276;2022-11-20T16:51:28;3.30;;;3.00;;
19946;SDS011;10135;50.702;7.276;2022-11-20T16:53:32;2.97;;;2.77;;
19946;SDS011;10135;50.702;7.276;2022-11-20T16:55:33;3.20;;;2.90;;
19946;SDS011;10135;50.702;7.276;2022-11-20T16:57:33;3.60;;;2.80;;
19946;SDS011;10135;50.702;7.276;2022-11-20T16:59:34;4.50;;;3.13;;
19946;SDS011;10135;50.702;7.276;2022-11-20T17:01:35;4.53;;;3.20;;
19946;SDS011;10135;50.702;7.276;2022-11-20T17:03:39;4.40;;;3.53;;
19946;SDS011;10135;50.702;7.276;2022-11-20T17:05:41;5.47;;;3.23;;
19946;SDS011;10135;50.702;7.276;2022-11-20T17:07:42;4.27;;;3.23;;
19946;SDS011;10135;50.702;7.276;2022-11-20T17:09:42;6.57;;;3.50;;
19946;SDS011;10135;50.702;7.276;2022-11-20T17:11:43;6.47;;;3.70;;
19946;SDS011;10135;50.702;7.276;2022-11-20T17:13:44;5.60;;;3.60;;
19946;SDS011;10135;50.702;7.276;2022-11-20T17:15:45;4.00;;;3.57;;
19946;SDS011;10135;50.702;7.276;2022-11-20T17:17:46;3.50;;;3.20;;
19946;SDS011;10135;50.702;7.276;2022-11-20T17:19:47;4.80;;;3.90;;
19946;SDS011;10135;50.702;7.276;2022-11-20T17:21:47;3.90;;;3.50;;
19946;SDS011;10135;50.702;7.276;2022-11-20T17:23:48;4.20;;;3.80;;
19946;SDS011;10135;50.702;7.276;2022-11-20T17:25:49;6.00;;;4.27;;
19946;SDS011;10135;50.702;7.276;2022-11-20T17:27:50;7.97;;;4.80;;
19946;SDS011;10135;50.702;7.276;2022-11-20T17:29:50;4.83;;;4.07;;
19946;SDS011;10135;50.702;7.276;2022-11-20T17:31:53;4.50;;;4.10;;
19946;SDS011;10135;50.702;7.276;2022-11-20T17:33:54;4.40;;;4.00;;
19946;SDS011;10135;50.702;7.276;2022-11-20T17:35:55;4.13;;;3.73;;
19946;SDS011;10135;50.702;7.276;2022-11-20T17:37:56;3.20;;;3.00;;
19946;SDS011;10135;50.702;7.276;2022-11-20T17:39:57;3.53;;;3.23;;
19946;SDS011;10135;50.702;7.276;2022-11-20T17:41:57;3.60;;;3.30;;
19946;SDS011;10135;50.702;7.276;2022-11-20T17:44:16;3.67;;;3.37;;
19946;SDS011;10135;50.702;7.276;2022-11-20T17:46:17;6.40;;;3.67;;
19946;SDS011;10135;50.702;7.276;2022-11-20T17:48:22;5.80;;;3.90;;
19946;SDS011;10135;50.702;7.276;2022-11-20T17:50:23;4.20;;;2.67;;
19946;SDS011;10135;50.702;7.276;2022-11-20T17:52:24;3.40;;;2.43;;
19946;SDS011;10135;50.702;7.276;2022-11-20T17:54:25;3.17;;;2.87;;
19946;SDS011;10135;50.702;7.276;2022-11-20T17:56:26;3.13;;;2.80;;
19946;SDS011;10135;50.702;7.276;2022-11-20T17:58:49;3.53;;;3.20;;
19946;SDS011;10135;50.702;7.276;2022-11-20T18:00:50;3.93;;;2.90;;
19946;SDS011;10135;50.702;7.276;2022-11-20T18:02:51;8.03;;;3.00;;
19946;SDS011;10135;50.702;7.276;2022-11-20T18:04:51;4.20;;;3.10;;
19946;SDS011;10135;50.702;7.276;2022-11-20T18:06:52;6.43;;;3.53;;
19946;SDS011;10135;50.702;7.276;2022-11-20T18:08:53;6.67;;;4.13;;
19946;SDS011;10135;50.702;7.276;2022-11-20T18:11:23;7.47;;;3.70;;
19946;SDS011;10135;50.702;7.276;2022-11-20T18:17:24;9.57;;;5.33;;
19946;SDS011;10135;50.702;7.276;2022-11-20T18:19:32;5.10;;;4.13;;
19946;SDS011;10135;50.702;7.276;2022-11-20T18:23:10;5.60;;;3.70;;
19946;SDS011;10135;50.702;7.276;2022-11-20T18:31:51;3.03;;;2.57;;
19946;SDS011;10135;50.702;7.276;2022-11-20T18:33:55;3.90;;;2.73;;
19946;SDS011;10135;50.702;7.276;2022-11-20T18:42:09;3.27;;;2.13;;
19946;SDS011;10135;50.702;7.276;2022-11-20T18:48:07;1.90;;;1.80;;
19946;SDS011;10135;50.702;7.276;2022-11-20T18:54:35;2.30;;;1.70;;
19946;SDS011;10135;50.702;7.276;2022-11-20T18:59:56;1.53;;;1.53;;
19946;SDS011;10135;50.702;7.276;2022-11-20T19:02:23;1.47;;;1.47;;
19946;SDS011;10135;50.702;7.276;2022-11-20T19:04:33;2.10;;;1.90;;
19946;SDS011;10135;50.702;7.276;2022-11-20T19:06:41;2.30;;;2.03;;
19946;SDS011;10135;50.702;7.276;2022-11-20T19:08:48;1.67;;;1.67;;
19946;SDS011;10135;50.702;7.276;2022-11-20T19:10:49;2.10;;;1.60;;
19946;SDS011;10135;50.702;7.276;2022-11-20T19:12:50;1.77;;;1.67;;
19946;SDS011;10135;50.702;7.276;2022-11-20T19:14:51;1.83;;;1.73;;
19946;SDS011;10135;50.702;7.276;2022-11-20T19:16:51;2.40;;;1.40;;
19946;SDS011;10135;50.702;7.276;2022-11-20T19:18:52;1.83;;;1.53;;
19946;SDS011;10135;50.702;7.276;2022-11-20T19:20:53;2.80;;;1.60;;
19946;SDS011;10135;50.702;7.276;2022-11-20T19:22:53;2.10;;;1.37;;
19946;SDS011;10135;50.702;7.276;2022-11-20T19:24:54;2.30;;;1.70;;
19946;SDS011;10135;50.702;7.276;2022-11-20T19:26:55;1.70;;;1.47;;
19946;SDS011;10135;50.702;7.276;2022-11-20T19:28:56;1.60;;;1.50;;
19946;SDS011;10135;50.702;7.276;2022-11-20T19:31:07;1.97;;;1.57;;
19946;SDS011;10135;50.702;7.276;2022-11-20T19:33:13;3.43;;;1.90;;
19946;SDS011;10135;50.702;7.276;2022-11-20T19:35:14;3.20;;;1.70;;
19946;SDS011;10135;50.702;7.276;2022-11-20T19:37:15;1.83;;;1.50;;
19946;SDS011;10135;50.702;7.276;2022-11-20T19:39:15;2.00;;;1.70;;
19946;SDS011;10135;50.702;7.276;2022-11-20T19:41:17;2.00;;;1.70;;
19946;SDS011;10135;50.702;7.276;2022-11-20T19:43:32;3.10;;;1.83;;
19946;SDS011;10135;50.702;7.276;2022-11-20T19:45:33;3.27;;;2.20;;
19946;SDS011;10135;50.702;7.276;2022-11-20T19:47:34;4.43;;;1.77;;
19946;SDS011;10135;50.702;7.276;2022-11-20T19:49:34;4.73;;;2.03;;
19946;SDS011;10135;50.702;7.276;2022-11-20T19:51:36;4.53;;;2.07;;
19946;SDS011;10135;50.702;7.276;2022-11-20T19:53:39;5.87;;;2.30;;
19946;SDS011;10135;50.702;7.276;2022-11-20T19:55:40;6.53;;;2.50;;
19946;SDS011;10135;50.702;7.276;2022-11-20T19:57:42;4.43;;;3.30;;
19946;SDS011;10135;50.702;7.276;2022-11-20T19:59:42;5.80;;;2.40;;
19946;SDS011;10135;50.702;7.276;2022-11-20T20:01:43;7.60;;;2.60;;
19946;SDS011;10135;50.702;7.276;2022-11-20T20:03:44;5.83;;;2.40;;
19946;SDS011;10135;50.702;7.276;2022-11-20T20:05:46;4.23;;;2.27;;
19946;SDS011;10135;50.702;7.276;2022-11-20T20:07:47;5.03;;;2.40;;
19946;SDS011;10135;50.702;7.276;2022-11-20T20:09:48;3.93;;;2.13;;
19946;SDS011;10135;50.702;7.276;2022-11-20T20:11:48;8.50;;;2.23;;
19946;SDS011;10135;50.702;7.276;2022-11-20T20:13:49;6.30;;;2.47;;
19946;SDS011;10135;50.702;7.276;2022-11-20T20:15:50;5.83;;;2.43;;
19946;SDS011;10135;50.702;7.276;2022-11-20T20:17:51;4.60;;;2.37;;
19946;SDS011;10135;50.702;7.276;2022-11-20T20:19:52;5.87;;;2.40;;
19946;SDS011;10135;50.702;7.276;2022-11-20T20:21:52;3.57;;;2.10;;
19946;SDS011;10135;50.702;7.276;2022-11-20T20:23:54;4.97;;;2.40;;
19946;SDS011;10135;50.702;7.276;2022-11-20T20:25:55;8.57;;;2.87;;
19946;SDS011;10135;50.702;7.276;2022-11-20T20:27:56;7.47;;;2.37;;
19946;SDS011;10135;50.702;7.276;2022-11-20T20:29:57;6.10;;;2.53;;
19946;SDS011;10135;50.702;7.276;2022-11-20T20:31:57;6.20;;;2.53;;
19946;SDS011;10135;50.702;7.276;2022-11-20T20:33:58;6.97;;;2.60;;